Time;durP1;ratioP1;P1;durP2;ratioP2;P2;SDS_P1;SDS_P2;PMS_P1;PMS_P2;Temp;Humidity;BMP_temperature;BMP_pressure;BME280_temperature;BME280_humidity;BME280_pressure;Samples;Min_cycle;Max_cycle;Signal;HPM_P1;HPM_P2
2021/09/19 00:00:48;;;;;;;1.50;1.40;;;;;;;10.67;92.21;96259.49;115861;1196;29814;-82
2021/09/19 00:03:19;;;;;;;2.90;1.90;;;;;;;10.68;92.09;96259.70;115762;1196;28066;-82
2021/09/19 00:05:50;;;;;;;3.10;1.90;;;;;;;10.70;92.13;96260.38;115801;1196;27593;-82
2021/09/19 00:08:21;;;;;;;1.70;1.50;;;;;;;10.71;92.27;96254.05;115833;1196;26278;-82
2021/09/19 00:10:52;;;;;;;2.40;1.60;;;;;;;10.67;92.08;96246.52;115900;1196;27529;-82
2021/09/19 00:13:23;;;;;;;2.70;2.00;;;;;;;10.61;92.12;96250.73;115839;1196;36276;-82
2021/09/19 00:15:55;;;;;;;3.00;1.50;;;;;;;10.57;92.38;96246.52;115833;1196;26158;-82
2021/09/19 00:18:26;;;;;;;2.80;2.00;;;;;;;10.50;92.83;96254.19;115841;1195;31633;-79
2021/09/19 00:20:57;;;;;;;3.20;1.70;;;;;;;10.47;93.04;96259.48;115817;1196;35383;-81
2021/09/19 00:23:28;;;;;;;2.80;2.20;;;;;;;10.45;93.25;96259.88;115818;1196;26178;-83
2021/09/19 00:25:59;;;;;;;2.00;1.80;;;;;;;10.44;93.25;96261.42;115793;1196;30960;-82
2021/09/19 00:28:30;;;;;;;2.60;2.00;;;;;;;10.48;93.34;96263.70;115835;1196;28221;-82
2021/09/19 00:31:01;;;;;;;3.20;2.70;;;;;;;10.49;93.58;96263.11;115763;1196;33096;-82
2021/09/19 00:33:32;;;;;;;3.00;2.50;;;;;;;10.46;93.45;96258.95;115811;1196;30071;-83
2021/09/19 00:36:03;;;;;;;4.20;3.50;;;;;;;10.46;93.76;96258.11;115811;1196;32984;-82
2021/09/19 00:38:34;;;;;;;6.50;4.30;;;;;;;10.42;93.89;96261.98;115687;1196;28959;-82
2021/09/19 00:41:05;;;;;;;6.30;3.70;;;;;;;10.44;93.98;96261.05;115805;1196;35590;-82
2021/09/19 00:43:36;;;;;;;5.80;4.40;;;;;;;10.47;94.10;96255.23;115738;1196;30643;-82
2021/09/19 00:46:07;;;;;;;4.30;3.70;;;;;;;10.43;94.15;96265.89;115852;1189;35615;-82
2021/09/19 00:48:37;;;;;;;5.20;3.80;;;;;;;10.46;94.21;96265.02;115846;1196;24475;-83
2021/09/19 00:51:08;;;;;;;4.70;3.70;;;;;;;10.46;93.98;96263.45;115808;1196;30352;-81
2021/09/19 00:53:42;;;;;;;6.50;4.10;;;;;;;10.50;94.03;96265.26;115744;1196;29631;-83
2021/09/19 00:56:17;;;;;;;6.70;4.70;;;;;;;10.53;94.05;96260.66;115803;1196;36301;-83
2021/09/19 00:58:52;;;;;;;6.60;4.80;;;;;;;10.54;94.08;96258.73;115759;1195;27169;-82
2021/09/19 01:01:24;;;;;;;6.20;4.50;;;;;;;10.54;94.11;96253.05;115882;1190;27035;-82
2021/09/19 01:03:56;;;;;;;4.40;3.30;;;;;;;10.50;94.49;96249.04;115797;1196;48318;-83
2021/09/19 01:06:27;;;;;;;6.00;4.50;;;;;;;10.44;94.63;96249.73;115809;1196;28816;-81
2021/09/19 01:08:59;;;;;;;6.20;5.00;;;;;;;10.41;94.85;96256.79;115815;1196;33229;-82
2021/09/19 01:11:30;;;;;;;6.10;4.30;;;;;;;10.41;94.95;96254.89;115780;1196;29817;-82
2021/09/19 01:14:02;;;;;;;3.50;3.20;;;;;;;10.41;95.15;96258.06;115803;1195;29223;-83
2021/09/19 01:16:34;;;;;;;4.50;3.90;;;;;;;10.41;94.98;96262.89;115849;1196;23722;-84
2021/09/19 01:19:10;;;;;;;5.70;4.10;;;;;;;10.39;94.76;96257.55;115781;1196;36541;-83
2021/09/19 01:21:42;;;;;;;4.90;2.90;;;;;;;10.42;94.95;96263.42;115810;1196;27908;-82
2021/09/19 01:24:13;;;;;;;3.30;2.80;;;;;;;10.46;94.96;96261.52;115825;1195;27318;-83
2021/09/19 01:26:44;;;;;;;4.40;2.70;;;;;;;10.51;94.89;96268.89;115751;1196;79951;-82
2021/09/19 01:29:15;;;;;;;3.00;2.50;;;;;;;10.50;94.68;96270.13;115687;1196;29477;-83
2021/09/19 01:31:46;;;;;;;3.00;2.50;;;;;;;10.52;94.66;96269.16;115848;1196;27430;-83
2021/09/19 01:34:17;;;;;;;2.90;2.20;;;;;;;10.50;94.32;96265.95;115776;1196;27572;-81
2021/09/19 01:36:48;;;;;;;2.70;1.90;;;;;;;10.47;94.36;96267.21;115774;1196;29227;-82
2021/09/19 01:39:19;;;;;;;3.70;2.40;;;;;;;10.49;94.45;96264.42;115794;1196;30415;-82
2021/09/19 01:41:52;;;;;;;2.70;2.10;;;;;;;10.45;94.40;96266.92;115759;1196;41998;-82
2021/09/19 01:44:23;;;;;;;2.90;2.30;;;;;;;10.40;94.34;96264.70;115846;1190;31044;-83
2021/09/19 01:46:54;;;;;;;2.40;1.90;;;;;;;10.37;94.34;96266.16;115853;1196;28272;-82
2021/09/19 01:49:25;;;;;;;4.10;2.50;;;;;;;10.40;94.48;96275.08;115866;1196;25458;-82
2021/09/19 01:51:56;;;;;;;2.30;2.00;;;;;;;10.43;94.53;96282.23;115845;1196;25473;-80
2021/09/19 01:54:28;;;;;;;3.80;2.70;;;;;;;10.35;94.25;96277.59;115689;1192;37087;-81
2021/09/19 01:56:59;;;;;;;3.20;2.80;;;;;;;10.34;94.55;96278.98;115850;1195;29480;-82
2021/09/19 01:59:30;;;;;;;4.40;3.30;;;;;;;10.36;94.57;96283.35;115831;1195;29335;-82
2021/09/19 02:02:02;;;;;;;5.70;4.00;;;;;;;10.36;94.56;96283.63;115791;1195;46609;-82
2021/09/19 02:04:37;;;;;;;7.00;5.10;;;;;;;10.34;94.36;96286.66;115819;1196;33480;-82
2021/09/19 02:07:08;;;;;;;6.80;4.90;;;;;;;10.34;94.26;96293.93;115901;1195;26348;-82
2021/09/19 02:09:39;;;;;;;7.70;5.80;;;;;;;10.32;93.96;96294.75;115819;1195;29980;-82
2021/09/19 02:12:13;;;;;;;7.90;5.50;;;;;;;10.24;93.35;96298.45;115808;1196;25892;-82
2021/09/19 02:14:45;;;;;;;8.70;6.30;;;;;;;10.21;93.54;96307.41;115868;1189;26256;-83
2021/09/19 02:17:16;;;;;;;9.20;6.30;;;;;;;10.15;93.17;96301.59;115817;1195;29036;-82
2021/09/19 02:19:47;;;;;;;10.90;8.10;;;;;;;10.10;93.33;96305.98;115834;1196;26358;-83
2021/09/19 02:22:18;;;;;;;12.10;8.10;;;;;;;10.11;93.38;96305.87;115844;1189;28842;-82
2021/09/19 02:24:49;;;;;;;10.50;7.90;;;;;;;10.07;93.25;96309.20;115812;1195;42774;-82
2021/09/19 02:27:21;;;;;;;9.40;7.50;;;;;;;9.99;93.01;96300.76;115936;1195;27222;-82
2021/09/19 02:29:52;;;;;;;11.10;8.90;;;;;;;9.96;92.66;96295.91;115899;1195;27743;-82
2021/09/19 02:32:23;;;;;;;11.20;8.40;;;;;;;9.93;92.58;96298.13;115929;1195;27916;-83
2021/09/19 02:34:54;;;;;;;11.70;8.20;;;;;;;9.90;92.68;96297.27;115881;1196;41794;-82
2021/09/19 02:37:25;;;;;;;12.00;9.50;;;;;;;9.86;92.52;96301.33;115907;1195;33174;-81
2021/09/19 02:39:56;;;;;;;10.90;6.70;;;;;;;9.77;92.34;96293.42;115832;1195;80292;-82
2021/09/19 02:42:27;;;;;;;11.60;8.50;;;;;;;9.68;92.26;96303.88;115877;1195;26910;-81
2021/09/19 02:44:58;;;;;;;12.10;8.60;;;;;;;9.59;92.07;96305.35;115794;1196;27948;-82
2021/09/19 02:47:29;;;;;;;13.70;10.40;;;;;;;9.55;92.07;96311.03;115814;1189;33635;-82
2021/09/19 02:50:00;;;;;;;14.40;9.80;;;;;;;9.52;92.09;96317.83;115858;1195;27538;-81
2021/09/19 02:52:31;;;;;;;12.60;8.70;;;;;;;9.53;92.27;96317.13;115850;1195;30347;-82
2021/09/19 02:55:01;;;;;;;13.70;10.30;;;;;;;9.57;92.32;96322.84;115801;1195;35585;-82
2021/09/19 02:57:33;;;;;;;11.90;9.30;;;;;;;9.60;92.25;96322.77;115807;1195;31053;-82
2021/09/19 03:00:04;;;;;;;11.80;8.70;;;;;;;9.63;92.16;96313.46;115824;1195;25773;-82
2021/09/19 03:02:35;;;;;;;13.60;9.60;;;;;;;9.62;91.71;96310.88;115805;1196;26994;-83
2021/09/19 03:05:08;;;;;;;13.50;9.60;;;;;;;9.58;91.57;96319.45;115856;1195;29010;-82
2021/09/19 03:07:39;;;;;;;13.80;9.90;;;;;;;9.60;91.74;96315.67;115834;1196;31038;-82
2021/09/19 03:10:12;;;;;;;12.80;10.00;;;;;;;9.54;91.65;96317.34;115805;1195;82926;-82
2021/09/19 03:12:43;;;;;;;14.70;9.90;;;;;;;9.50;91.63;96317.75;115885;1195;26957;-82
2021/09/19 03:15:14;;;;;;;12.60;10.20;;;;;;;9.48;91.81;96318.41;115854;1195;31911;-82
2021/09/19 03:17:45;;;;;;;15.00;10.70;;;;;;;9.49;91.97;96313.36;115818;1195;26051;-82
2021/09/19 03:20:17;;;;;;;14.20;10.00;;;;;;;9.53;92.08;96316.77;115752;1196;29175;-82
2021/09/19 03:22:48;;;;;;;13.50;10.70;;;;;;;9.52;91.97;96312.66;115843;1189;28351;-83
2021/09/19 03:25:19;;;;;;;13.70;11.10;;;;;;;9.47;91.99;96310.27;115798;1196;37377;-82
2021/09/19 03:27:50;;;;;;;16.80;11.30;;;;;;;9.48;92.06;96312.95;115844;1195;24747;-82
2021/09/19 03:30:21;;;;;;;14.20;11.10;;;;;;;9.52;92.16;96316.46;115921;1192;26393;-82
2021/09/19 03:32:52;;;;;;;14.60;10.30;;;;;;;9.51;92.08;96313.45;115853;1195;27926;-82
2021/09/19 03:35:23;;;;;;;13.30;9.10;;;;;;;9.47;91.84;96310.06;115889;1195;28374;-83
2021/09/19 03:37:54;;;;;;;17.00;11.40;;;;;;;9.37;91.85;96308.44;115905;1196;36586;-82
2021/09/19 03:40:25;;;;;;;15.60;10.80;;;;;;;9.31;91.95;96308.45;115893;1195;28975;-82
2021/09/19 03:42:56;;;;;;;13.90;10.80;;;;;;;9.32;91.99;96313.04;115723;1196;44918;-80
2021/09/19 03:45:29;;;;;;;16.20;11.30;;;;;;;9.31;91.99;96310.36;115834;1195;48221;-81
2021/09/19 03:48:05;;;;;;;15.60;11.80;;;;;;;9.28;92.15;96314.91;115825;1189;29185;-82
2021/09/19 03:50:37;;;;;;;12.30;9.50;;;;;;;9.24;92.34;96310.92;115798;1196;29353;-82
2021/09/19 03:53:08;;;;;;;11.20;8.40;;;;;;;9.19;92.45;96309.76;115867;1195;28938;-82
2021/09/19 03:55:39;;;;;;;11.80;9.00;;;;;;;9.12;92.37;96305.50;115818;1196;28800;-82
2021/09/19 03:58:10;;;;;;;14.90;10.60;;;;;;;9.06;92.32;96316.52;115856;1196;23860;-82
2021/09/19 04:00:41;;;;;;;13.30;9.70;;;;;;;9.01;92.13;96321.14;115814;1195;34758;-83
2021/09/19 04:03:11;;;;;;;11.30;8.50;;;;;;;9.00;91.84;96324.95;115757;1195;30527;-82
2021/09/19 04:05:42;;;;;;;10.50;8.10;;;;;;;8.99;91.62;96321.31;115681;1196;30251;-82
2021/09/19 04:08:13;;;;;;;14.30;9.30;;;;;;;8.93;91.38;96319.50;115841;1188;31163;-83
2021/09/19 04:10:44;;;;;;;9.70;7.80;;;;;;;8.88;90.99;96319.27;115788;1189;28292;-82
2021/09/19 04:13:16;;;;;;;9.60;7.00;;;;;;;8.84;90.63;96322.02;115834;1196;28899;-82
2021/09/19 04:15:47;;;;;;;8.90;6.90;;;;;;;8.78;90.34;96315.58;115839;1190;39695;-83
2021/09/19 04:18:17;;;;;;;9.20;7.60;;;;;;;8.73;90.26;96323.80;115851;1190;29970;-82
2021/09/19 04:20:48;;;;;;;9.70;7.20;;;;;;;8.71;90.52;96326.34;115846;1189;43787;-83
2021/09/19 04:23:22;;;;;;;11.20;7.80;;;;;;;8.72;90.74;96328.56;115795;1196;49371;-81
2021/09/19 04:25:53;;;;;;;10.10;7.40;;;;;;;8.72;90.70;96330.89;115873;1188;28051;-83
2021/09/19 04:28:24;;;;;;;11.50;8.40;;;;;;;8.73;90.80;96328.14;115837;1196;24471;-82
2021/09/19 04:30:54;;;;;;;9.70;7.60;;;;;;;8.65;90.76;96331.19;115882;1195;32030;-83
2021/09/19 04:33:25;;;;;;;10.00;7.60;;;;;;;8.56;90.92;96338.46;115923;1195;24144;-82
2021/09/19 04:35:56;;;;;;;10.60;8.20;;;;;;;8.49;91.16;96337.14;115871;1195;26656;-82
2021/09/19 04:38:27;;;;;;;10.10;7.30;;;;;;;8.39;91.05;96348.79;115821;1195;25289;-81
2021/09/19 04:40:58;;;;;;;11.00;7.80;;;;;;;8.32;91.04;96352.23;115806;1195;28899;-82
2021/09/19 04:43:29;;;;;;;10.30;7.40;;;;;;;8.27;90.85;96354.98;115821;1196;24718;-82
2021/09/19 04:46:00;;;;;;;9.60;8.10;;;;;;;8.26;90.65;96352.34;115740;1195;42724;-82
2021/09/19 04:48:30;;;;;;;15.00;9.50;;;;;;;8.24;90.67;96365.29;115858;1195;24607;-82
2021/09/19 04:51:01;;;;;;;10.90;7.10;;;;;;;8.22;90.52;96368.21;115860;1195;28895;-82
2021/09/19 04:53:32;;;;;;;9.20;7.40;;;;;;;8.21;90.36;96366.84;115777;1195;33832;-82
2021/09/19 04:56:03;;;;;;;12.30;8.00;;;;;;;8.16;90.23;96370.38;115778;1196;33991;-82
2021/09/19 04:58:34;;;;;;;16.70;12.30;;;;;;;8.13;90.25;96372.50;115806;1195;31679;-83
2021/09/19 05:01:05;;;;;;;12.50;8.80;;;;;;;8.05;90.04;96371.63;115714;1196;24596;-83
2021/09/19 05:03:36;;;;;;;24.00;14.70;;;;;;;7.94;89.94;96376.60;115796;1196;25810;-82
2021/09/19 05:06:07;;;;;;;33.10;20.50;;;;;;;7.84;89.89;96375.88;115798;1196;26360;-82
2021/09/19 05:08:38;;;;;;;17.10;11.10;;;;;;;7.77;89.93;96381.75;115863;1189;27312;-84
2021/09/19 05:11:08;;;;;;;19.00;13.40;;;;;;;7.69;89.88;96384.17;115849;1195;25937;-83
2021/09/19 05:13:39;;;;;;;20.10;14.30;;;;;;;7.63;89.81;96385.67;115814;1195;25612;-83
2021/09/19 05:16:10;;;;;;;15.70;12.10;;;;;;;7.58;89.92;96390.82;115823;1195;32826;-83
2021/09/19 05:18:41;;;;;;;16.80;12.30;;;;;;;7.56;89.73;96391.40;115717;1196;38333;-82
2021/09/19 05:21:12;;;;;;;16.20;12.00;;;;;;;7.54;89.58;96393.36;115785;1195;31123;-82
2021/09/19 05:23:43;;;;;;;13.10;8.20;;;;;;;7.53;89.54;96391.46;115843;1190;31671;-82
2021/09/19 05:26:14;;;;;;;14.60;11.70;;;;;;;7.50;89.57;96389.14;115822;1195;25222;-83
2021/09/19 05:28:45;;;;;;;14.10;11.00;;;;;;;7.47;89.80;96390.84;115823;1195;30324;-82
2021/09/19 05:31:16;;;;;;;15.30;11.20;;;;;;;7.47;90.06;96395.11;115820;1195;37382;-82
2021/09/19 05:33:47;;;;;;;14.00;11.30;;;;;;;7.45;90.14;96398.59;115802;1196;28987;-82
2021/09/19 05:36:18;;;;;;;16.10;12.30;;;;;;;7.39;90.62;96400.52;115758;1189;29524;-83
2021/09/19 05:38:49;;;;;;;13.50;10.80;;;;;;;7.37;90.93;96396.73;115794;1196;27331;-82
2021/09/19 05:41:20;;;;;;;15.70;12.10;;;;;;;7.34;91.14;96404.44;115804;1189;29784;-81
2021/09/19 05:43:51;;;;;;;16.20;11.80;;;;;;;7.30;91.27;96404.36;115805;1196;28667;-82
2021/09/19 05:46:22;;;;;;;15.40;10.80;;;;;;;7.30;91.55;96406.63;115835;1196;27603;-82
2021/09/19 05:48:53;;;;;;;15.50;12.30;;;;;;;7.32;91.74;96410.70;115887;1196;29382;-82
2021/09/19 05:51:24;;;;;;;15.00;11.80;;;;;;;7.34;91.86;96407.91;115859;1196;28439;-83
2021/09/19 05:53:55;;;;;;;15.10;11.90;;;;;;;7.37;91.96;96412.66;115855;1195;33099;-82
2021/09/19 05:56:26;;;;;;;15.60;10.90;;;;;;;7.38;91.91;96410.66;115851;1195;29155;-82
2021/09/19 05:58:58;;;;;;;15.20;10.80;;;;;;;7.39;92.04;96411.45;115727;1196;27560;-82
2021/09/19 06:01:29;;;;;;;17.50;11.70;;;;;;;7.36;92.34;96416.83;115843;1189;26525;-82
2021/09/19 06:04:00;;;;;;;15.40;11.20;;;;;;;7.37;92.29;96419.94;115829;1195;40499;-82
2021/09/19 06:06:31;;;;;;;15.70;11.00;;;;;;;7.40;92.58;96422.10;115862;1195;38313;-82
2021/09/19 06:09:02;;;;;;;13.70;10.60;;;;;;;7.39;92.84;96420.73;115834;1196;27400;-82
2021/09/19 06:11:33;;;;;;;13.50;9.10;;;;;;;7.36;92.92;96425.48;115826;1196;26222;-83
2021/09/19 06:14:05;;;;;;;13.50;8.70;;;;;;;7.34;93.49;96421.15;115821;1196;28599;-83
2021/09/19 06:16:36;;;;;;;11.90;8.10;;;;;;;7.29;93.82;96422.09;115777;1196;31476;-84
2021/09/19 06:19:07;;;;;;;12.60;8.60;;;;;;;7.26;94.21;96426.66;115794;1189;27828;-84
2021/09/19 06:21:38;;;;;;;12.40;9.30;;;;;;;7.23;94.35;96430.99;115774;1195;41331;-83
2021/09/19 06:24:09;;;;;;;12.80;9.40;;;;;;;7.22;94.65;96436.53;115816;1196;28986;-83
2021/09/19 06:26:40;;;;;;;14.70;9.90;;;;;;;7.22;94.86;96435.69;115834;1195;28042;-82
2021/09/19 06:29:11;;;;;;;12.50;8.90;;;;;;;7.22;95.08;96431.52;115797;1195;29012;-82
2021/09/19 06:31:43;;;;;;;12.90;8.80;;;;;;;7.24;94.92;96435.48;115811;1195;32434;-83
2021/09/19 06:34:14;;;;;;;11.10;7.20;;;;;;;7.26;94.98;96434.20;115805;1196;30326;-82
2021/09/19 06:36:46;;;;;;;8.20;6.60;;;;;;;7.27;95.02;96433.89;115802;1190;30671;-82
2021/09/19 06:39:17;;;;;;;10.20;7.20;;;;;;;7.27;94.98;96428.67;115835;1196;33980;-82
2021/09/19 06:41:51;;;;;;;9.30;6.50;;;;;;;7.24;95.23;96436.90;115766;1195;32318;-82
2021/09/19 06:44:22;;;;;;;10.20;7.20;;;;;;;7.24;95.42;96436.95;115893;1190;28172;-83
2021/09/19 06:46:56;;;;;;;12.10;7.20;;;;;;;7.23;95.42;96443.44;115883;1195;28207;-81
2021/09/19 06:49:28;;;;;;;9.90;7.00;;;;;;;7.23;95.61;96443.27;115859;1195;24036;-79
2021/09/19 06:51:59;;;;;;;10.00;6.90;;;;;;;7.19;95.79;96447.23;115806;1195;28248;-80
2021/09/19 06:54:30;;;;;;;11.40;7.20;;;;;;;7.17;95.72;96451.63;115783;1195;43606;-81
2021/09/19 06:57:01;;;;;;;10.70;7.70;;;;;;;7.15;96.06;96451.47;115803;1195;31655;-80
2021/09/19 06:59:32;;;;;;;9.20;6.60;;;;;;;7.15;96.20;96449.58;115803;1190;33355;-81
2021/09/19 07:02:03;;;;;;;10.00;6.60;;;;;;;7.14;96.29;96444.30;115806;1190;26546;-81
2021/09/19 07:04:34;;;;;;;11.90;7.50;;;;;;;7.12;96.55;96448.98;115837;1195;28957;-82
2021/09/19 07:07:06;;;;;;;10.50;6.80;;;;;;;7.12;96.56;96435.48;115823;1195;29712;-81
2021/09/19 07:09:37;;;;;;;10.60;6.90;;;;;;;7.11;96.52;96434.64;115819;1195;28329;-81
2021/09/19 07:12:09;;;;;;;9.50;6.40;;;;;;;7.10;96.61;96447.09;115772;1195;40089;-81
2021/09/19 07:14:39;;;;;;;11.10;7.40;;;;;;;7.11;96.58;96447.04;115757;1195;30839;-80
2021/09/19 07:17:12;;;;;;;10.60;7.90;;;;;;;7.13;96.73;96446.63;115693;1190;28972;-81
2021/09/19 07:19:43;;;;;;;12.60;8.70;;;;;;;7.15;96.71;96454.00;115827;1195;32768;-81
2021/09/19 07:22:14;;;;;;;10.60;7.90;;;;;;;7.19;96.74;96456.29;115863;1190;27034;-82
2021/09/19 07:24:46;;;;;;;13.30;9.30;;;;;;;7.20;96.80;96460.52;115829;1195;25768;-82
2021/09/19 07:27:17;;;;;;;13.00;8.40;;;;;;;7.24;96.74;96451.71;115853;1196;27981;-80
2021/09/19 07:29:48;;;;;;;55.70;22.60;;;;;;;7.25;96.62;96445.80;115797;1195;28758;-81
2021/09/19 07:32:20;;;;;;;18.70;11.60;;;;;;;7.24;96.65;96450.88;115866;1195;28112;-81
2021/09/19 07:34:51;;;;;;;13.70;10.20;;;;;;;7.25;96.62;96444.02;115807;1195;27639;-81
2021/09/19 07:37:23;;;;;;;12.20;8.50;;;;;;;7.29;96.60;96450.13;115832;1195;28115;-81
2021/09/19 07:39:54;;;;;;;9.20;7.30;;;;;;;7.30;96.42;96455.04;115874;1195;25791;-81
2021/09/19 07:42:26;;;;;;;10.00;6.70;;;;;;;7.33;96.24;96460.02;115847;1195;26017;-82
2021/09/19 07:44:58;;;;;;;11.00;7.40;;;;;;;7.38;96.39;96455.21;115846;1195;28656;-81
2021/09/19 07:47:30;;;;;;;12.40;7.70;;;;;;;7.37;95.93;96448.84;115793;1195;37096;-81
2021/09/19 07:50:02;;;;;;;11.70;8.60;;;;;;;7.37;95.67;96454.01;115792;1195;30980;-81
2021/09/19 07:52:34;;;;;;;12.00;9.00;;;;;;;7.39;95.60;96456.44;115777;1190;47080;-81
2021/09/19 07:55:07;;;;;;;10.60;8.40;;;;;;;7.42;95.51;96448.95;115784;1195;32428;-82
2021/09/19 07:57:38;;;;;;;12.40;8.30;;;;;;;7.44;95.29;96453.95;115802;1196;31565;-82
2021/09/19 08:00:11;;;;;;;13.80;9.60;;;;;;;7.46;95.32;96464.90;115831;1195;25302;-82
2021/09/19 08:02:43;;;;;;;12.10;8.50;;;;;;;7.49;95.22;96466.48;115809;1195;35103;-82
2021/09/19 08:05:15;;;;;;;13.60;9.10;;;;;;;7.50;95.10;96468.27;115712;1196;48022;-82
2021/09/19 08:07:47;;;;;;;11.60;8.70;;;;;;;7.50;95.17;96469.76;115865;1195;26153;-81
2021/09/19 08:10:18;;;;;;;12.00;7.90;;;;;;;7.43;95.33;96472.42;115818;1195;29157;-82
2021/09/19 08:12:49;;;;;;;12.00;8.60;;;;;;;7.40;95.50;96470.77;115825;1190;27787;-81
2021/09/19 08:15:22;;;;;;;13.50;10.40;;;;;;;7.36;95.69;96475.32;115881;1195;30436;-81
2021/09/19 08:17:53;;;;;;;11.80;8.20;;;;;;;7.34;95.93;96468.57;115932;1195;29382;-81
2021/09/19 08:20:27;;;;;;;12.10;9.40;;;;;;;7.28;96.22;96470.12;115849;1195;34668;-81
2021/09/19 08:22:59;;;;;;;10.80;7.60;;;;;;;7.24;96.49;96475.13;115807;1195;40826;-81
2021/09/19 08:25:30;;;;;;;13.00;8.90;;;;;;;7.24;96.60;96474.81;115879;1194;32995;-81
2021/09/19 08:28:02;;;;;;;13.50;8.80;;;;;;;7.28;96.50;96478.18;115809;1195;34654;-80
2021/09/19 08:30:33;;;;;;;11.50;8.60;;;;;;;7.33;96.56;96479.74;115786;1196;37099;-82
2021/09/19 08:33:06;;;;;;;11.70;8.00;;;;;;;7.32;96.44;96477.05;115841;1191;27829;-80
2021/09/19 08:35:38;;;;;;;11.60;7.90;;;;;;;7.31;96.26;96477.30;115694;1196;32269;-81
2021/09/19 08:38:13;;;;;;;12.90;8.50;;;;;;;7.32;96.38;96483.16;115841;1196;26235;-81
2021/09/19 08:40:47;;;;;;;11.60;7.30;;;;;;;7.30;96.38;96486.05;115720;1196;31897;-81
2021/09/19 08:43:21;;;;;;;9.50;6.60;;;;;;;7.29;96.38;96489.20;115808;1190;34615;-82
2021/09/19 08:45:54;;;;;;;10.30;6.90;;;;;;;7.27;96.12;96495.70;115876;1196;30332;-81
2021/09/19 08:48:28;;;;;;;10.80;6.80;;;;;;;7.28;95.91;96495.91;115764;1190;38106;-81
2021/09/19 08:51:01;;;;;;;8.90;6.50;;;;;;;7.34;95.96;96497.73;115668;1196;35137;-81
2021/09/19 08:53:33;;;;;;;11.30;6.70;;;;;;;7.39;95.67;96500.90;115776;1196;30788;-81
2021/09/19 08:56:07;;;;;;;9.60;6.70;;;;;;;7.45;95.27;96500.39;115788;1190;32543;-82
2021/09/19 08:58:43;;;;;;;9.20;6.00;;;;;;;7.52;94.99;96499.04;115874;1195;28041;-82
2021/09/19 09:01:14;;;;;;;8.30;6.00;;;;;;;7.57;94.43;96495.49;115829;1195;28339;-81
2021/09/19 09:03:48;;;;;;;8.50;5.80;;;;;;;7.59;94.08;96493.77;115906;1190;27782;-81
2021/09/19 09:06:25;;;;;;;8.90;6.00;;;;;;;7.61;93.90;96497.59;115832;1195;29916;-82
2021/09/19 09:08:56;;;;;;;7.70;4.80;;;;;;;7.70;93.82;96495.52;115843;1195;31954;-81
2021/09/19 09:11:31;;;;;;;6.50;5.20;;;;;;;7.74;93.16;96496.84;115952;1195;30468;-81
2021/09/19 09:14:04;;;;;;;8.40;5.80;;;;;;;7.81;93.08;96490.64;115915;1195;48510;-82
2021/09/19 09:16:35;;;;;;;7.40;5.20;;;;;;;7.87;92.68;96492.63;115900;1195;27893;-83
2021/09/19 09:19:12;;;;;;;8.60;5.30;;;;;;;8.00;93.12;96490.48;115801;1196;27125;-82
2021/09/19 09:21:43;;;;;;;6.40;5.00;;;;;;;8.21;93.38;96490.99;115839;1195;27828;-81
2021/09/19 09:24:18;;;;;;;7.90;4.80;;;;;;;8.41;93.09;96487.14;115797;1195;32094;-81
2021/09/19 09:26:49;;;;;;;9.00;5.50;;;;;;;8.46;91.79;96485.87;115839;1195;33102;-81
2021/09/19 09:29:20;;;;;;;6.50;4.80;;;;;;;8.43;91.36;96488.14;115840;1195;29869;-81
2021/09/19 09:31:53;;;;;;;7.00;5.30;;;;;;;8.43;91.17;96489.24;115823;1196;28534;-82
2021/09/19 09:34:26;;;;;;;7.80;5.10;;;;;;;8.36;90.84;96489.52;115902;1196;28238;-83
2021/09/19 09:36:59;;;;;;;7.00;5.20;;;;;;;8.30;90.82;96489.45;115959;1195;26407;-80
2021/09/19 09:39:34;;;;;;;8.40;5.10;;;;;;;8.30;90.98;96492.84;115870;1196;50037;-80
2021/09/19 09:42:08;;;;;;;7.80;5.60;;;;;;;8.31;91.02;96491.00;115878;1195;39159;-80
2021/09/19 09:44:42;;;;;;;9.00;5.40;;;;;;;8.29;90.94;96491.20;115418;1195;34123;-80
2021/09/19 09:47:15;;;;;;;7.30;5.40;;;;;;;8.27;90.88;96491.25;115137;1190;41208;-81
2021/09/19 09:49:49;;;;;;;7.20;5.10;;;;;;;8.23;90.50;96491.73;115921;1190;51332;-81
2021/09/19 09:52:26;;;;;;;6.00;4.50;;;;;;;8.18;90.43;96490.90;115885;1195;34726;-81
2021/09/19 09:54:59;;;;;;;6.40;4.50;;;;;;;8.20;90.44;96490.27;115955;1195;30036;-80
2021/09/19 09:57:51;;;;;;;6.30;4.30;;;;;;;8.25;90.23;96491.36;115924;1195;25896;-80
2021/09/19 10:00:32;;;;;;;6.70;4.80;;;;;;;8.30;90.08;96495.37;115788;1196;76856;-80
2021/09/19 10:03:03;;;;;;;7.40;5.30;;;;;;;8.33;89.99;96496.65;115721;1196;45237;-80
2021/09/19 10:05:35;;;;;;;8.90;5.80;;;;;;;8.31;89.88;96501.50;115888;1190;27615;-81
2021/09/19 10:08:06;;;;;;;9.00;5.20;;;;;;;8.28;89.85;96500.80;115812;1196;37762;-80
2021/09/19 10:10:41;;;;;;;7.00;4.60;;;;;;;8.25;89.76;96503.40;115945;1195;27118;-81
2021/09/19 10:13:14;;;;;;;6.60;4.60;;;;;;;8.21;89.88;96507.48;115876;1191;30513;-80
2021/09/19 10:15:45;;;;;;;6.70;4.20;;;;;;;8.21;89.99;96508.48;115859;1195;33875;-81
2021/09/19 10:18:20;;;;;;;6.10;4.40;;;;;;;8.21;89.76;96504.10;115813;1189;40056;-82
2021/09/19 10:20:52;;;;;;;7.10;4.50;;;;;;;8.25;89.88;96502.98;115866;1195;38583;-81
2021/09/19 10:23:26;;;;;;;7.80;4.50;;;;;;;8.33;89.43;96507.27;115837;1195;113913;-82
2021/09/19 10:26:07;;;;;;;7.20;5.00;;;;;;;8.43;89.56;96508.76;117143;1189;39034;-82
2021/09/19 10:28:42;;;;;;;6.60;5.00;;;;;;;8.56;89.47;96508.94;117067;1195;41081;-82
2021/09/19 10:31:21;;;;;;;6.30;4.50;;;;;;;8.66;89.27;96507.39;117162;1195;43937;-83
2021/09/19 10:33:57;;;;;;;8.80;5.50;;;;;;;8.73;88.75;96504.38;117191;1194;50700;-83
2021/09/19 10:36:34;;;;;;;7.60;5.20;;;;;;;8.72;87.91;96500.19;117148;1180;47659;-83
2021/09/19 10:39:26;;;;;;;6.60;4.70;;;;;;;8.70;87.50;96507.33;117160;1195;45557;-83
2021/09/19 10:42:28;;;;;;;6.70;4.70;;;;;;;8.68;87.25;96503.90;117177;1195;50514;-82
2021/09/19 10:45:07;;;;;;;7.30;4.30;;;;;;;8.63;87.15;96501.70;117212;1194;27718;-83
2021/09/19 10:47:48;;;;;;;6.10;3.90;;;;;;;8.59;87.14;96505.20;117132;1194;32694;-82
2021/09/19 10:50:36;;;;;;;7.30;4.50;;;;;;;8.56;87.22;96508.23;117174;1194;33393;-83
2021/09/19 10:53:20;;;;;;;7.20;4.80;;;;;;;8.57;87.46;96501.58;117205;1195;31174;-83
2021/09/19 10:55:56;;;;;;;7.80;5.70;;;;;;;8.60;87.89;96509.36;117180;1195;38985;-83
2021/09/19 10:58:30;;;;;;;8.50;5.80;;;;;;;8.66;88.25;96517.33;117164;1195;32025;-83
2021/09/19 11:01:19;;;;;;;9.60;5.40;;;;;;;8.63;88.18;96521.09;117195;1195;34466;-83
2021/09/19 11:04:12;;;;;;;7.40;5.60;;;;;;;8.60;88.56;96521.15;117119;1195;32253;-83
2021/09/19 11:06:43;;;;;;;7.70;6.00;;;;;;;8.52;88.57;96524.59;117181;1195;30000;-83
2021/09/19 11:09:27;;;;;;;8.10;5.50;;;;;;;8.45;88.80;96528.73;115953;1190;36416;-83
2021/09/19 11:12:14;;;;;;;8.10;5.20;;;;;;;8.39;89.09;96527.67;115880;1195;45855;-81
2021/09/19 11:15:03;;;;;;;6.40;4.60;;;;;;;8.37;88.93;96522.19;115875;1195;65911;-82
2021/09/19 11:17:36;;;;;;;7.50;5.40;;;;;;;8.37;89.00;96525.98;115885;1190;26894;-83
2021/09/19 11:20:31;;;;;;;8.20;4.90;;;;;;;8.41;89.05;96522.23;115885;1195;30188;-83
2021/09/19 11:23:23;;;;;;;10.10;7.80;;;;;;;8.49;88.73;96525.08;115867;1195;46747;-83
2021/09/19 11:25:56;;;;;;;42.90;23.90;;;;;;;8.62;89.23;96526.27;115977;1195;36387;-82
2021/09/19 11:28:28;;;;;;;24.20;14.70;;;;;;;8.73;88.92;96525.09;115936;1195;31937;-82
2021/09/19 11:31:02;;;;;;;8.80;6.30;;;;;;;8.83;88.81;96527.53;115778;1196;35556;-83
2021/09/19 11:33:36;;;;;;;7.50;5.10;;;;;;;8.89;88.46;96525.16;115891;1196;36045;-83
2021/09/19 11:36:11;;;;;;;9.90;5.60;;;;;;;8.92;87.96;96525.35;115817;1196;38407;-82
2021/09/19 11:38:45;;;;;;;6.60;4.60;;;;;;;8.96;87.92;96517.93;115848;1196;49597;-83
2021/09/19 11:41:19;;;;;;;6.60;5.00;;;;;;;8.98;87.46;96521.41;115872;1195;40067;-82
2021/09/19 11:43:54;;;;;;;8.50;5.50;;;;;;;9.00;87.27;96517.91;115862;1195;42444;-83
2021/09/19 11:46:28;;;;;;;6.30;4.50;;;;;;;8.98;86.93;96520.14;115935;1195;36161;-82
2021/09/19 11:48:59;;;;;;;7.90;6.00;;;;;;;8.93;86.86;96522.91;115883;1195;26864;-83
2021/09/19 11:51:31;;;;;;;8.70;5.90;;;;;;;8.88;87.07;96528.11;115866;1189;33551;-82